createdAt,value
2019-02-05T00:01:57.964Z,8.49
2019-02-05T00:04:27.914Z,8.61
2019-02-05T00:06:57.789Z,8.63
2019-02-05T00:09:27.582Z,8.62
2019-02-05T00:11:57.446Z,8.64
2019-02-05T00:14:27.579Z,8.68
2019-02-05T00:16:57.538Z,8.65
2019-02-05T00:19:27.399Z,8.60
2019-02-05T00:21:57.264Z,8.54
2019-02-05T00:24:27.383Z,8.45
2019-02-05T00:26:57.336Z,8.51
2019-02-05T00:29:27.571Z,8.41
2019-02-05T00:31:57.576Z,8.52
2019-02-05T00:34:27.594Z,8.39
2019-02-05T00:36:57.558Z,8.33
2019-02-05T00:39:27.830Z,8.41
2019-02-05T00:41:57.956Z,8.42
2019-02-05T00:44:27.692Z,8.52
2019-02-05T00:46:57.665Z,8.52
2019-02-05T00:49:27.610Z,8.30
2019-02-05T00:51:57.433Z,8.38
2019-02-05T00:54:27.538Z,8.22
2019-02-05T00:56:57.458Z,8.10
2019-02-05T00:59:27.519Z,8.18
2019-02-05T01:01:57.298Z,8.27
2019-02-05T01:04:27.192Z,8.26
2019-02-05T01:06:57.369Z,8.10
2019-02-05T01:09:27.546Z,8.24
2019-02-05T01:11:57.357Z,8.18
2019-02-05T01:14:27.104Z,8.21
2019-02-05T01:16:56.973Z,8.34
2019-02-05T01:19:26.718Z,8.15
2019-02-05T01:21:56.682Z,8.31
2019-02-05T01:24:26.835Z,8.38
2019-02-05T01:26:56.754Z,8.44
2019-02-05T01:29:26.832Z,8.45
2019-02-05T01:31:56.841Z,8.48
2019-02-05T01:34:26.598Z,8.54
2019-02-05T01:36:56.553Z,8.54
2019-02-05T01:39:26.668Z,8.56
2019-02-05T01:41:56.786Z,8.60
2019-02-05T01:44:26.714Z,8.63
2019-02-05T01:46:56.590Z,8.68
2019-02-05T01:49:26.562Z,8.73
2019-02-05T01:51:57.138Z,8.79
2019-02-05T01:54:26.897Z,8.79
2019-02-05T01:56:56.683Z,8.78
2019-02-05T01:59:27.748Z,8.76
2019-02-05T02:01:57.625Z,8.71
2019-02-05T02:04:27.542Z,8.64
2019-02-05T02:06:57.731Z,8.57
2019-02-05T02:09:27.594Z,8.42
2019-02-05T02:11:57.623Z,8.55
2019-02-05T02:14:27.589Z,8.56
2019-02-05T02:16:57.676Z,8.59
2019-02-05T02:19:28.079Z,8.66
2019-02-05T02:21:58.030Z,8.63
2019-02-05T02:24:27.948Z,8.62
2019-02-05T02:26:58.054Z,8.64
2019-02-05T02:29:28.012Z,8.61
2019-02-05T02:31:57.901Z,8.62
2019-02-05T02:34:27.894Z,8.60
2019-02-05T02:36:57.788Z,8.61
2019-02-05T02:39:27.665Z,8.62
2019-02-05T02:41:57.681Z,8.65
2019-02-05T02:44:27.546Z,8.68
2019-02-05T02:46:57.324Z,8.57
2019-02-05T02:49:27.274Z,8.59
2019-02-05T02:51:57.087Z,8.53
2019-02-05T02:54:26.959Z,8.50
2019-02-05T02:57:04.519Z,8.48
2019-02-05T02:59:28.405Z,8.45
2019-02-05T03:01:58.547Z,8.53
2019-02-05T03:04:28.484Z,8.50
2019-02-05T03:06:58.338Z,8.39
2019-02-05T03:09:28.178Z,8.34
2019-02-05T03:11:58.208Z,8.31
2019-02-05T03:14:28.513Z,8.19
2019-02-05T03:16:58.327Z,8.15
2019-02-05T03:19:28.577Z,8.15
2019-02-05T03:21:58.352Z,8.10
2019-02-05T03:24:28.185Z,7.94
2019-02-05T03:26:58.251Z,7.94
2019-02-05T03:29:28.229Z,7.87
2019-02-05T03:31:58.127Z,7.84
2019-02-05T03:34:29.933Z,7.85
2019-02-05T03:36:59.817Z,7.81
2019-02-05T03:39:29.808Z,7.77
2019-02-05T03:41:59.680Z,7.78
2019-02-05T03:44:29.547Z,7.78
2019-02-05T03:46:59.452Z,7.80
2019-02-05T03:49:30.438Z,7.73
2019-02-05T03:52:17.280Z,7.67
2019-02-05T03:55:23.119Z,7.72
2019-02-05T03:58:18.232Z,7.59
2019-02-05T04:01:31.571Z,7.59
2019-02-05T04:04:26.888Z,7.56
2019-02-05T04:07:33.049Z,7.49
2019-02-05T04:10:47.573Z,7.43
2019-02-05T04:13:52.692Z,7.35
2019-02-05T04:17:10.385Z,7.23
2019-02-05T04:20:29.765Z,7.21
2019-02-05T04:23:43.097Z,7.16
2019-02-05T04:26:53.652Z,7.03
2019-02-05T04:30:15.501Z,6.98
2019-02-05T04:33:26.381Z,6.89
2019-02-05T04:36:28.565Z,6.76
2019-02-05T04:39:45.062Z,6.78
2019-02-05T04:42:52.165Z,6.75
2019-02-05T04:45:52.962Z,6.84
2019-02-05T04:49:22.097Z,6.79
2019-02-05T04:52:41.992Z,6.87
2019-02-05T04:55:35.678Z,6.81
2019-02-05T04:58:43.267Z,6.77
2019-02-05T05:02:02.745Z,6.80
2019-02-05T05:05:28.687Z,6.64
2019-02-05T05:08:21.010Z,6.54
2019-02-05T05:10:50.906Z,6.58
2019-02-05T05:13:20.829Z,6.56
2019-02-05T05:15:51.120Z,6.61
2019-02-05T05:18:21.036Z,6.70
2019-02-05T05:20:50.964Z,6.80
2019-02-05T05:23:21.044Z,6.96
2019-02-05T05:25:50.914Z,6.84
2019-02-05T05:28:21.426Z,6.75
2019-02-05T05:30:52.539Z,6.73
2019-02-05T05:33:22.493Z,6.94
2019-02-05T05:35:52.299Z,7.13
2019-02-05T05:38:22.168Z,7.26
2019-02-05T05:40:52.034Z,7.24
2019-02-05T05:43:21.750Z,7.41
2019-02-05T05:45:51.807Z,7.52
2019-02-05T05:48:22.040Z,7.56
2019-02-05T05:50:51.899Z,7.74
2019-02-05T05:53:21.846Z,7.92
2019-02-05T05:55:51.792Z,8.09
2019-02-05T05:58:23.415Z,8.13
2019-02-05T06:00:53.544Z,8.21
2019-02-05T06:03:23.351Z,8.15
2019-02-05T06:05:53.393Z,8.19
2019-02-05T06:08:23.689Z,8.27
2019-02-05T06:10:53.932Z,8.39
2019-02-05T06:13:23.852Z,8.49
2019-02-05T06:15:53.958Z,8.53
2019-02-05T06:18:24.002Z,8.75
2019-02-05T06:20:53.945Z,8.76
2019-02-05T06:23:23.908Z,8.78
2019-02-05T06:25:53.812Z,8.85
2019-02-05T06:28:34.356Z,8.92
2019-02-05T06:30:55.075Z,9.03
2019-02-05T06:33:25.020Z,9.06
2019-02-05T06:35:54.988Z,8.93
2019-02-05T06:38:24.822Z,8.69
2019-02-05T06:40:54.664Z,8.68
2019-02-05T06:43:25.834Z,8.79
2019-02-05T06:45:55.906Z,8.83
2019-02-05T06:48:25.716Z,8.68
2019-02-05T06:50:56.917Z,8.84
2019-02-05T06:53:26.676Z,8.88
2019-02-05T06:55:56.504Z,9.00
2019-02-05T06:58:26.570Z,9.03
2019-02-05T07:00:56.750Z,9.29
2019-02-05T07:03:26.570Z,9.51
2019-02-05T07:05:56.429Z,9.39
2019-02-05T07:08:26.386Z,9.53
2019-02-05T07:10:56.421Z,9.42
2019-02-05T07:13:26.488Z,9.15
2019-02-05T07:15:56.721Z,9.51
2019-02-05T07:18:26.806Z,9.77
2019-02-05T07:20:56.704Z,9.94
2019-02-05T07:23:28.095Z,9.68
2019-02-05T07:25:58.114Z,9.77
2019-02-05T07:28:28.107Z,9.62
2019-02-05T07:30:58.273Z,9.74
2019-02-05T07:33:28.107Z,9.86
2019-02-05T07:35:57.933Z,9.63
2019-02-05T07:38:27.739Z,9.80
2019-02-05T07:40:57.909Z,10.13
2019-02-05T07:43:27.875Z,10.24
2019-02-05T07:45:57.980Z,10.27
2019-02-05T07:48:30.428Z,9.53
2019-02-05T07:50:59.797Z,9.97
2019-02-05T07:53:33.049Z,10.21
2019-02-05T07:56:01.505Z,10.33
2019-02-05T07:58:31.535Z,10.30
2019-02-05T08:01:01.499Z,10.30
2019-02-05T08:03:31.812Z,10.25
2019-02-05T08:06:01.664Z,10.59
2019-02-05T08:08:31.711Z,10.64
2019-02-05T08:11:01.744Z,11.06
2019-02-05T08:13:31.654Z,11.13
2019-02-05T08:16:01.648Z,11.32
2019-02-05T08:18:31.526Z,11.33
2019-02-05T08:21:02.598Z,10.70
2019-02-05T08:23:32.604Z,10.47
2019-02-05T08:26:02.312Z,10.99
2019-02-05T08:28:40.641Z,10.55
2019-02-05T08:31:04.114Z,10.78
2019-02-05T08:33:33.910Z,10.70
2019-02-05T08:36:03.872Z,10.68
2019-02-05T08:38:33.882Z,10.71
2019-02-05T08:41:03.659Z,10.77
2019-02-05T08:43:33.420Z,10.63
2019-02-05T08:46:03.499Z,10.46
2019-02-05T08:48:33.310Z,10.75
2019-02-05T08:51:03.173Z,10.60
2019-02-05T08:53:33.252Z,10.29
2019-02-05T08:56:03.261Z,10.11
2019-02-05T08:58:34.334Z,10.45
2019-02-05T09:01:04.521Z,10.55
2019-02-05T09:03:34.348Z,10.87
2019-02-05T09:06:04.112Z,10.90
2019-02-05T09:08:34.324Z,11.08
2019-02-05T09:11:04.405Z,10.99
2019-02-05T09:13:34.278Z,10.84
2019-02-05T09:16:04.156Z,11.13
2019-02-05T09:18:33.967Z,11.24
2019-02-05T09:21:03.815Z,10.89
2019-02-05T09:23:33.886Z,11.11
2019-02-05T09:26:03.814Z,11.38
2019-02-05T09:28:33.812Z,11.28
2019-02-05T09:31:03.782Z,11.76
2019-02-05T09:33:33.759Z,12.22
2019-02-05T09:36:03.636Z,12.17
2019-02-05T09:38:33.478Z,11.23
2019-02-05T09:41:03.308Z,11.01
2019-02-05T09:43:33.501Z,10.85
2019-02-05T09:46:03.632Z,10.69
2019-02-05T09:48:33.601Z,10.87
2019-02-05T09:51:03.630Z,10.93
2019-02-05T09:53:33.529Z,11.02
2019-02-05T09:56:03.624Z,10.88
2019-02-05T09:58:33.857Z,10.95
2019-02-05T10:01:05.357Z,11.10
2019-02-05T10:03:35.209Z,11.08
2019-02-05T10:06:05.075Z,10.82
2019-02-05T10:08:35.152Z,11.05
2019-02-05T10:11:05.568Z,11.08
2019-02-05T10:13:35.434Z,11.19
2019-02-05T10:16:05.910Z,11.12
2019-02-05T10:18:35.745Z,11.15
2019-02-05T10:21:06.115Z,11.34
2019-02-05T10:23:36.086Z,11.50
2019-02-05T10:26:06.624Z,11.84
2019-02-05T10:28:36.580Z,12.38
2019-02-05T10:31:06.534Z,12.67
2019-02-05T10:33:36.275Z,12.73
2019-02-05T10:36:06.922Z,12.73
2019-02-05T10:38:36.820Z,13.09
2019-02-05T10:41:07.116Z,13.24
2019-02-05T10:43:38.320Z,13.47
2019-02-05T10:46:09.929Z,13.51
2019-02-05T10:48:39.745Z,13.45
2019-02-05T10:51:09.902Z,13.31
2019-02-05T10:53:39.804Z,13.20
2019-02-05T10:56:09.811Z,13.04
2019-02-05T10:58:39.742Z,12.92
2019-02-05T11:01:09.577Z,12.63
2019-02-05T11:03:39.369Z,12.63
2019-02-05T11:06:09.123Z,12.71
2019-02-05T11:08:38.985Z,12.62
2019-02-05T11:11:08.803Z,12.39
2019-02-05T11:13:38.567Z,12.31
2019-02-05T11:16:08.449Z,12.21
2019-02-05T11:18:38.383Z,12.17
2019-02-05T11:21:08.345Z,12.01
2019-02-05T11:23:39.557Z,11.90
2019-02-05T11:26:09.534Z,11.83
2019-02-05T11:28:39.545Z,11.81
2019-02-05T11:31:10.715Z,11.69
2019-02-05T11:33:40.620Z,11.69
2019-02-05T11:36:11.978Z,11.61
2019-02-05T11:38:41.970Z,11.82
2019-02-05T11:41:13.709Z,11.87
2019-02-05T11:43:43.808Z,11.71
2019-02-05T11:46:13.732Z,11.66
2019-02-05T11:48:43.588Z,11.72
2019-02-05T11:51:13.543Z,11.83
2019-02-05T11:53:43.627Z,11.77
2019-02-05T11:56:13.343Z,11.72
2019-02-05T11:58:43.500Z,11.70
2019-02-05T12:01:20.617Z,11.75
2019-02-05T12:03:50.598Z,11.80
2019-02-05T12:06:20.608Z,11.85
2019-02-05T12:08:50.371Z,11.86
2019-02-05T12:11:20.408Z,11.93
2019-02-05T12:13:50.456Z,11.89
2019-02-05T12:16:20.425Z,11.86
2019-02-05T12:18:50.296Z,11.92
2019-02-05T12:21:20.095Z,11.90
2019-02-05T12:23:49.892Z,11.81
2019-02-05T12:26:19.740Z,11.83
2019-02-05T12:28:49.971Z,11.94
2019-02-05T12:31:19.921Z,11.93
2019-02-05T12:33:49.786Z,11.97
2019-02-05T12:36:19.603Z,12.03
2019-02-05T12:38:49.477Z,12.17
2019-02-05T12:41:19.449Z,11.99
2019-02-05T12:43:49.664Z,11.95
2019-02-05T12:46:19.613Z,11.92
2019-02-05T12:48:49.643Z,11.89
2019-02-05T12:51:19.840Z,11.92
2019-02-05T12:53:49.650Z,11.91
2019-02-05T12:56:19.647Z,11.69
2019-02-05T12:58:50.034Z,11.58
2019-02-05T13:01:19.911Z,11.39
2019-02-05T13:03:49.750Z,11.29
2019-02-05T13:06:19.736Z,11.06
2019-02-05T13:08:49.649Z,10.96
2019-02-05T13:11:19.733Z,10.75
2019-02-05T13:13:49.598Z,10.80
2019-02-05T13:16:19.632Z,10.77
2019-02-05T13:18:51.889Z,10.64
2019-02-05T13:21:21.288Z,10.42
2019-02-05T13:23:51.006Z,10.32
2019-02-05T13:26:20.874Z,10.09
2019-02-05T13:28:50.730Z,10.17
2019-02-05T13:31:20.531Z,10.14
2019-02-05T13:33:50.392Z,10.26
2019-02-05T13:36:22.643Z,10.43
2019-02-05T13:38:53.557Z,10.43
2019-02-05T13:41:24.847Z,10.42
2019-02-05T13:43:54.758Z,10.36
2019-02-05T13:46:24.549Z,10.36
2019-02-05T13:48:54.415Z,10.44
2019-02-05T13:51:24.271Z,10.34
2019-02-05T13:53:54.747Z,10.42
2019-02-05T13:56:26.612Z,10.38
2019-02-05T13:58:56.518Z,10.36
2019-02-05T14:01:26.750Z,10.38
2019-02-05T14:03:56.958Z,10.31
2019-02-05T14:06:26.904Z,10.27
2019-02-05T14:08:57.001Z,10.17
2019-02-05T14:11:26.911Z,10.10
2019-02-05T14:13:58.075Z,10.30
2019-02-05T14:16:28.092Z,10.69
2019-02-05T14:18:57.959Z,11.46
2019-02-05T14:21:27.941Z,11.84
2019-02-05T14:23:57.912Z,11.91
2019-02-05T14:26:27.811Z,12.04
2019-02-05T14:28:57.782Z,12.81
2019-02-05T14:31:31.327Z,13.06
2019-02-05T14:33:59.572Z,12.87
2019-02-05T14:36:29.834Z,12.43
2019-02-05T14:38:59.889Z,12.36
2019-02-05T14:41:29.779Z,12.36
2019-02-05T14:43:59.652Z,12.18
2019-02-05T14:46:29.492Z,12.18
2019-02-05T14:48:59.423Z,12.19
2019-02-05T14:51:29.911Z,12.13
2019-02-05T14:54:00.037Z,11.90
2019-02-05T14:56:30.914Z,11.95
2019-02-05T14:59:00.858Z,12.11
2019-02-05T15:01:30.749Z,11.79
2019-02-05T15:04:00.598Z,11.55
2019-02-05T15:06:30.520Z,11.34
2019-02-05T15:09:00.416Z,11.35
2019-02-05T15:11:30.205Z,10.92
2019-02-05T15:14:00.188Z,10.47
2019-02-05T15:16:30.366Z,10.40
2019-02-05T15:19:00.489Z,10.00
2019-02-05T15:21:30.464Z,9.65
2019-02-05T15:24:00.219Z,9.53
2019-02-05T15:26:30.148Z,9.33
2019-02-05T15:29:00.175Z,9.15
2019-02-05T15:31:30.047Z,9.05
2019-02-05T15:34:05.771Z,8.93
2019-02-05T15:36:37.654Z,8.88
2019-02-05T15:39:14.088Z,8.71
2019-02-05T15:41:44.516Z,8.56
2019-02-05T15:44:14.811Z,8.52
2019-02-05T15:46:44.812Z,8.40
2019-02-05T15:49:14.619Z,8.32
2019-02-05T15:51:44.569Z,8.27
2019-02-05T15:54:14.475Z,8.24
2019-02-05T15:56:44.375Z,8.18
2019-02-05T15:59:14.292Z,8.19
2019-02-05T16:01:44.327Z,8.23
2019-02-05T16:04:14.302Z,8.24
2019-02-05T16:06:44.216Z,8.27
2019-02-05T16:09:14.406Z,8.26
2019-02-05T16:11:44.289Z,8.32
2019-02-05T16:14:14.386Z,8.45
2019-02-05T16:16:44.628Z,8.40
2019-02-05T16:19:15.614Z,8.36
2019-02-05T16:21:45.587Z,8.41
2019-02-05T16:24:15.514Z,8.38
2019-02-05T16:26:45.916Z,8.34
2019-02-05T16:29:15.868Z,8.31
2019-02-05T16:31:45.793Z,8.24
2019-02-05T16:34:15.766Z,8.18
2019-02-05T16:36:48.550Z,8.10
2019-02-05T16:39:17.391Z,8.15
2019-02-05T16:41:47.561Z,8.05
2019-02-05T16:44:18.648Z,8.07
2019-02-05T16:46:48.693Z,7.98
2019-02-05T16:49:18.635Z,7.90
2019-02-05T16:51:48.391Z,7.91
2019-02-05T16:54:18.190Z,7.83
2019-02-05T16:56:48.149Z,7.74
2019-02-05T16:59:17.960Z,7.73
2019-02-05T17:01:48.058Z,7.66
2019-02-05T17:04:19.224Z,7.61
2019-02-05T17:06:49.466Z,7.55
2019-02-05T17:09:20.692Z,7.52
2019-02-05T17:11:52.151Z,7.48
2019-02-05T17:14:22.040Z,7.43
2019-02-05T17:16:52.006Z,7.43
2019-02-05T17:19:22.468Z,7.36
2019-02-05T17:21:52.403Z,7.32
2019-02-05T17:24:22.219Z,7.38
2019-02-05T17:26:51.996Z,7.27
2019-02-05T17:29:22.068Z,7.22
2019-02-05T17:31:52.117Z,7.28
2019-02-05T17:34:21.998Z,7.27
2019-02-05T17:36:51.947Z,7.19
2019-02-05T17:39:21.794Z,7.18
2019-02-05T17:41:51.971Z,7.17
2019-02-05T17:44:21.873Z,7.18
2019-02-05T17:46:51.811Z,7.17
2019-02-05T17:49:21.814Z,7.16
2019-02-05T17:51:52.362Z,7.13
2019-02-05T17:54:22.401Z,7.15
2019-02-05T17:56:52.378Z,7.13
2019-02-05T17:59:22.536Z,7.11
2019-02-05T18:01:52.695Z,7.08
2019-02-05T18:04:22.539Z,7.11
2019-02-05T18:06:52.539Z,7.04
2019-02-05T18:09:22.414Z,6.98
2019-02-05T18:11:52.405Z,6.96
2019-02-05T18:14:22.210Z,7.10
2019-02-05T18:16:53.455Z,6.92
2019-02-05T18:19:23.371Z,6.92
2019-02-05T18:21:53.284Z,6.83
2019-02-05T18:24:23.224Z,6.84
2019-02-05T18:26:53.219Z,6.78
2019-02-05T18:29:23.008Z,6.75
2019-02-05T18:31:52.859Z,6.85
2019-02-05T18:34:23.093Z,6.91
2019-02-05T18:36:53.129Z,6.86
2019-02-05T18:39:23.030Z,6.87
2019-02-05T18:41:53.255Z,6.84
2019-02-05T18:44:23.088Z,6.85
2019-02-05T18:46:53.118Z,6.91
2019-02-05T18:49:22.979Z,6.92
2019-02-05T18:51:52.829Z,6.94
2019-02-05T18:54:22.768Z,6.90
2019-02-05T18:56:52.611Z,7.02
2019-02-05T18:59:22.372Z,7.06
2019-02-05T19:01:52.605Z,7.09
2019-02-05T19:04:22.688Z,7.09
2019-02-05T19:06:52.693Z,7.08
2019-02-05T19:09:22.703Z,6.94
2019-02-05T19:11:52.533Z,6.84
2019-02-05T19:14:23.270Z,6.85
2019-02-05T19:16:53.682Z,6.97
2019-02-05T19:19:23.512Z,6.83
2019-02-05T19:21:53.327Z,6.77
2019-02-05T19:24:36.441Z,6.85
2019-02-05T19:27:06.353Z,6.90
2019-02-05T19:29:36.493Z,6.87
2019-02-05T19:32:06.584Z,6.79
2019-02-05T19:34:36.486Z,6.75
2019-02-05T19:37:06.686Z,6.74
2019-02-05T19:39:37.823Z,6.70
2019-02-05T19:42:09.188Z,6.69
2019-02-05T19:44:40.721Z,6.71
2019-02-05T19:47:19.597Z,6.70
2019-02-05T19:49:53.286Z,6.64
2019-02-05T19:52:23.299Z,6.67
2019-02-05T19:54:53.189Z,6.64
2019-02-05T19:57:23.169Z,6.67
2019-02-05T19:59:53.655Z,6.62
2019-02-05T20:02:23.433Z,6.62
2019-02-05T20:04:53.457Z,6.63
2019-02-05T20:07:23.413Z,6.66
2019-02-05T20:09:53.281Z,6.69
2019-02-05T20:12:23.208Z,6.72
2019-02-05T20:14:54.359Z,6.65
2019-02-05T20:17:25.539Z,6.67
2019-02-05T20:19:55.493Z,6.61
2019-02-05T20:22:25.412Z,6.66
2019-02-05T20:24:55.402Z,6.64
2019-02-05T20:27:27.729Z,6.59
2019-02-05T20:29:57.747Z,6.59
2019-02-05T20:32:28.262Z,6.63
2019-02-05T20:34:58.091Z,6.57
2019-02-05T20:37:28.266Z,6.54
2019-02-05T20:39:58.519Z,6.55
2019-02-05T20:42:28.777Z,6.51
2019-02-05T20:44:59.025Z,6.51
2019-02-05T20:47:29.006Z,6.46
2019-02-05T20:49:58.903Z,6.49
2019-02-05T20:52:29.006Z,6.43
2019-02-05T20:54:58.846Z,6.53
2019-02-05T20:57:29.816Z,6.43
2019-02-05T20:59:59.833Z,6.46
2019-02-05T21:02:29.647Z,6.47
2019-02-05T21:04:59.582Z,6.50
2019-02-05T21:07:29.674Z,6.57
2019-02-05T21:09:59.565Z,6.57
2019-02-05T21:12:30.657Z,6.58
2019-02-05T21:15:00.562Z,6.57
2019-02-05T21:17:30.342Z,6.54
2019-02-05T21:20:00.345Z,6.52
2019-02-05T21:22:30.238Z,6.51
2019-02-05T21:25:00.128Z,6.50
2019-02-05T21:27:30.672Z,6.48
2019-02-05T21:30:00.662Z,6.33
2019-02-05T21:32:30.563Z,6.32
2019-02-05T21:35:00.437Z,6.37
2019-02-05T21:37:30.466Z,6.40
2019-02-05T21:40:02.530Z,6.39
2019-02-05T21:42:32.010Z,6.40
2019-02-05T21:45:01.894Z,6.35
2019-02-05T21:47:33.273Z,6.28
2019-02-05T21:50:03.495Z,6.31
2019-02-05T21:52:33.409Z,6.22
2019-02-05T21:55:03.412Z,6.18
2019-02-05T21:57:33.292Z,6.14
2019-02-05T22:00:11.717Z,6.13
2019-02-05T22:02:41.757Z,6.17
2019-02-05T22:05:11.916Z,6.16
2019-02-05T22:07:41.921Z,6.14
2019-02-05T22:10:12.082Z,6.13
2019-02-05T22:12:42.253Z,6.03
2019-02-05T22:15:13.287Z,6.03
2019-02-05T22:17:43.356Z,5.98
2019-02-05T22:20:15.821Z,6.01
2019-02-05T22:22:46.951Z,6.00
2019-02-05T22:25:22.312Z,5.90
2019-02-05T22:27:52.236Z,5.93
2019-02-05T22:30:32.406Z,5.90
2019-02-05T22:33:02.717Z,5.89
2019-02-05T22:35:32.600Z,5.87
2019-02-05T22:38:02.488Z,5.93
2019-02-05T22:40:32.380Z,5.92
2019-02-05T22:43:02.747Z,5.96
2019-02-05T22:45:32.847Z,5.92
2019-02-05T22:48:03.451Z,5.93
2019-02-05T22:50:33.938Z,5.92
2019-02-05T22:53:04.183Z,5.88
2019-02-05T22:55:34.242Z,5.79
2019-02-05T22:58:04.387Z,5.79
2019-02-05T23:00:52.176Z,5.80
2019-02-05T23:03:25.939Z,5.76
2019-02-05T23:06:29.306Z,5.72
2019-02-05T23:09:15.152Z,5.78
2019-02-05T23:12:20.913Z,5.81
2019-02-05T23:14:54.686Z,5.79
2019-02-05T23:17:24.729Z,5.79
2019-02-05T23:19:54.664Z,5.75
2019-02-05T23:22:24.642Z,5.65
2019-02-05T23:24:54.903Z,5.73
2019-02-05T23:27:25.344Z,5.75
2019-02-05T23:29:55.128Z,5.80
2019-02-05T23:32:24.860Z,5.81
2019-02-05T23:35:02.401Z,5.75
2019-02-05T23:37:27.054Z,5.75
2019-02-05T23:39:56.832Z,5.77
2019-02-05T23:42:26.783Z,5.72
2019-02-05T23:44:56.768Z,5.69
2019-02-05T23:47:26.522Z,5.70
2019-02-05T23:49:56.446Z,5.60
2019-02-05T23:52:26.317Z,5.62
2019-02-05T23:54:56.239Z,5.56
2019-02-05T23:57:26.415Z,5.56
2019-02-05T23:59:56.392Z,5.67
